Youngstown Warren Regional Airport
KYNG : now visible

Airfield :











YOU CAN JOIN US ON...

 
LOGIN :

Register | Disclaimer

   EN    FR    IT 

 









Legend :    VFR   Marginal VFR   IFR   Intensive IFR   Very Intensive IFR
Visi :
Ceiling :
>= 8 km
>= 3000ft
5 to 8 km
1000 to 3000 ft
1500m to 5 km
500 to 1000 ft
800 to 1500m
200 to 500 ft
< 800m
< 200 ft
Symbols :   Thunderstorms  Fog  Heavy snow  Heavy precipitations  Wind > 20 kt






- Airport Elevation : 1192 ft
- IATA code : YNG


KYNG - Youngstown Warren Regional

CURRENT METAR :
  • 271426Z 27012G24KT 2 1/2SM -SN BKN018 OVC035 M06/M11 A2984 RMK AO2 P0000 T10561106

EXPIRED METARs :
  • 271409Z 27013G24KT 1/2SM SN VV008 M06/M09 A2984 RMK AO2 P0000 T10611094
  • 271351Z 27011KT 1/2SM SN OVC014 M06/M09 A2984 RMK AO2 PK WND 29029/1313 SLP119 P0000 T10611094
  • 271251Z 27018G27KT 2 1/2SM -SN BKN019 BKN030 OVC035 M06/M11 A2982 RMK AO2 PK WND 29027/1248 SLP109 OCNL BLSN P0000 T10561106
  • 271241Z 27018G26KT 2 1/2SM -SN BKN016 BKN021 OVC035 M06/M10 A2981 RMK AO2 PK WND 27026/1235 OCNL BLSN P0000 T10561100
  • 271220Z 26012G21KT 1SM -SN BKN016 BKN021 OVC026 M06/M09 A2980 RMK AO2 OCNL BLSN P0000 T10561089
  • 271151Z 26015G22KT 2SM -SN FEW008 BKN014 OVC019 M06/M09 A2978 RMK AO2 PK WND 30026/1118 SLP097 4/001 OCNL BLSN P0001 60001 70036 T10561089 11028 21056 53025

TAF KYNG
Valid from the 27 at 12:00 until the 28 at 12:00 UTC


271120Z 2712/2812 28015G25KT P6SM -SHSN OVC025
TEMPO 2712/2714 1SM -SHSN BLSN OVC012
FM271700 27020G30KT 6SM -SHSN BR BKN025
FM272200 27015G25KT 6SM -SHSN BR OVC040
FM272300 27015G25KT 6SM -SHSN BR OVC030
FM280100 27015G25KT P6SM OVC035



MET'MAP, your aeronautical weather chart ! - Copyright ORBIFLY December 2007 - Disclaimer

ORBIFLY MET'MAP TEAM :

Programming & Development : Alexandra Zaïnal
Concept & original design : Baudouin d'Aumeries
Assistance for programming : Marc-Olivier Méhu
Technical & hardware support : Manuel Goepfert

Contact : metmap@orbifly.com




SOURCES & CREDITS :

   NOAA       Earth
Advisory